sensor_id;sensor_type;location;lat;lon;timestamp;temperature;humidity
4896;DHT22;2463;49.948;8.472;2023-07-16T00:00:34;20.80;99.90
4896;DHT22;2463;49.948;8.472;2023-07-16T00:03:01;20.80;99.90
4896;DHT22;2463;49.948;8.472;2023-07-16T00:05:28;20.80;99.90
4896;DHT22;2463;49.948;8.472;2023-07-16T00:07:55;20.70;99.90
4896;DHT22;2463;49.948;8.472;2023-07-16T00:10:23;20.80;99.90
4896;DHT22;2463;49.948;8.472;2023-07-16T00:12:49;20.70;99.90
4896;DHT22;2463;49.948;8.472;2023-07-16T00:15:16;20.70;99.90
4896;DHT22;2463;49.948;8.472;2023-07-16T00:17:43;20.70;99.90
4896;DHT22;2463;49.948;8.472;2023-07-16T00:20:10;20.70;99.90
4896;DHT22;2463;49.948;8.472;2023-07-16T00:22:37;20.60;99.90
4896;DHT22;2463;49.948;8.472;2023-07-16T00:25:06;20.60;99.90
4896;DHT22;2463;49.948;8.472;2023-07-16T00:27:33;20.50;99.90
4896;DHT22;2463;49.948;8.472;2023-07-16T00:30:00;20.50;99.90
4896;DHT22;2463;49.948;8.472;2023-07-16T00:32:27;20.40;99.90
4896;DHT22;2463;49.948;8.472;2023-07-16T00:34:53;20.50;99.90
4896;DHT22;2463;49.948;8.472;2023-07-16T00:37:20;20.40;99.90
4896;DHT22;2463;49.948;8.472;2023-07-16T00:39:47;20.40;99.90
4896;DHT22;2463;49.948;8.472;2023-07-16T00:42:13;20.20;99.90
4896;DHT22;2463;49.948;8.472;2023-07-16T00:44:40;20.30;99.90
4896;DHT22;2463;49.948;8.472;2023-07-16T00:47:08;20.30;99.90
4896;DHT22;2463;49.948;8.472;2023-07-16T00:49:36;20.30;99.90
4896;DHT22;2463;49.948;8.472;2023-07-16T00:52:03;20.30;99.90
4896;DHT22;2463;49.948;8.472;2023-07-16T00:54:31;20.20;99.90
4896;DHT22;2463;49.948;8.472;2023-07-16T00:56:58;20.20;99.90
4896;DHT22;2463;49.948;8.472;2023-07-16T00:59:25;20.30;99.90
4896;DHT22;2463;49.948;8.472;2023-07-16T01:01:52;20.30;99.90
4896;DHT22;2463;49.948;8.472;2023-07-16T01:04:18;20.30;99.90
4896;DHT22;2463;49.948;8.472;2023-07-16T01:06:50;20.20;99.90
4896;DHT22;2463;49.948;8.472;2023-07-16T01:09:20;20.20;99.90
4896;DHT22;2463;49.948;8.472;2023-07-16T01:11:48;20.30;99.90
4896;DHT22;2463;49.948;8.472;2023-07-16T01:14:18;20.20;99.90
4896;DHT22;2463;49.948;8.472;2023-07-16T01:16:45;20.20;99.90
4896;DHT22;2463;49.948;8.472;2023-07-16T01:19:12;20.20;99.90
4896;DHT22;2463;49.948;8.472;2023-07-16T01:24:46;20.10;99.90
4896;DHT22;2463;49.948;8.472;2023-07-16T01:30:04;20.10;99.90
4896;DHT22;2463;49.948;8.472;2023-07-16T01:32:36;20.00;99.90
4896;DHT22;2463;49.948;8.472;2023-07-16T01:35:05;19.90;99.90
4896;DHT22;2463;49.948;8.472;2023-07-16T01:37:33;19.80;99.90
4896;DHT22;2463;49.948;8.472;2023-07-16T01:40:01;19.80;99.90
4896;DHT22;2463;49.948;8.472;2023-07-16T01:42:28;19.70;99.90
4896;DHT22;2463;49.948;8.472;2023-07-16T01:44:55;19.70;99.90
4896;DHT22;2463;49.948;8.472;2023-07-16T01:47:45;19.70;99.90
4896;DHT22;2463;49.948;8.472;2023-07-16T01:50:14;19.70;99.90
4896;DHT22;2463;49.948;8.472;2023-07-16T01:52:41;19.70;99.90
4896;DHT22;2463;49.948;8.472;2023-07-16T01:55:07;19.60;99.90
4896;DHT22;2463;49.948;8.472;2023-07-16T01:57:34;19.70;99.90
4896;DHT22;2463;49.948;8.472;2023-07-16T02:00:01;19.70;99.90
4896;DHT22;2463;49.948;8.472;2023-07-16T02:02:28;19.80;99.90
4896;DHT22;2463;49.948;8.472;2023-07-16T02:04:55;19.90;99.90
4896;DHT22;2463;49.948;8.472;2023-07-16T02:07:22;19.80;99.90
4896;DHT22;2463;49.948;8.472;2023-07-16T02:09:50;19.90;99.90
4896;DHT22;2463;49.948;8.472;2023-07-16T02:12:17;19.90;99.90
4896;DHT22;2463;49.948;8.472;2023-07-16T02:14:44;19.80;99.90
4896;DHT22;2463;49.948;8.472;2023-07-16T02:17:10;19.80;99.90
4896;DHT22;2463;49.948;8.472;2023-07-16T02:19:37;19.70;99.90
4896;DHT22;2463;49.948;8.472;2023-07-16T02:22:04;19.70;99.90
4896;DHT22;2463;49.948;8.472;2023-07-16T02:24:31;19.70;99.90
4896;DHT22;2463;49.948;8.472;2023-07-16T02:26:58;19.70;99.90
4896;DHT22;2463;49.948;8.472;2023-07-16T02:29:24;19.70;99.90
4896;DHT22;2463;49.948;8.472;2023-07-16T02:31:51;19.60;99.90
4896;DHT22;2463;49.948;8.472;2023-07-16T02:34:18;19.60;99.90
4896;DHT22;2463;49.948;8.472;2023-07-16T02:36:45;19.70;99.90
4896;DHT22;2463;49.948;8.472;2023-07-16T02:39:11;19.70;99.90
4896;DHT22;2463;49.948;8.472;2023-07-16T02:41:38;19.70;99.90
4896;DHT22;2463;49.948;8.472;2023-07-16T02:44:05;19.70;99.90
4896;DHT22;2463;49.948;8.472;2023-07-16T02:46:32;19.70;99.90
4896;DHT22;2463;49.948;8.472;2023-07-16T02:48:59;19.70;99.90
4896;DHT22;2463;49.948;8.472;2023-07-16T02:51:26;19.60;99.90
4896;DHT22;2463;49.948;8.472;2023-07-16T02:53:53;19.50;99.90
4896;DHT22;2463;49.948;8.472;2023-07-16T02:56:19;19.50;99.90
4896;DHT22;2463;49.948;8.472;2023-07-16T02:58:46;19.40;99.90
4896;DHT22;2463;49.948;8.472;2023-07-16T03:01:13;19.40;99.90
4896;DHT22;2463;49.948;8.472;2023-07-16T03:03:40;19.30;99.90
4896;DHT22;2463;49.948;8.472;2023-07-16T03:06:07;19.20;99.90
4896;DHT22;2463;49.948;8.472;2023-07-16T03:08:34;19.20;99.90
4896;DHT22;2463;49.948;8.472;2023-07-16T03:11:01;19.10;99.90
4896;DHT22;2463;49.948;8.472;2023-07-16T03:13:28;19.10;99.90
4896;DHT22;2463;49.948;8.472;2023-07-16T03:15:54;19.00;99.90
4896;DHT22;2463;49.948;8.472;2023-07-16T03:18:21;19.00;99.90
4896;DHT22;2463;49.948;8.472;2023-07-16T03:20:48;19.00;99.90
4896;DHT22;2463;49.948;8.472;2023-07-16T03:23:14;19.00;99.90
4896;DHT22;2463;49.948;8.472;2023-07-16T03:25:41;18.90;99.90
4896;DHT22;2463;49.948;8.472;2023-07-16T03:28:08;18.90;99.90
4896;DHT22;2463;49.948;8.472;2023-07-16T03:30:35;18.90;99.90
4896;DHT22;2463;49.948;8.472;2023-07-16T03:33:01;18.80;99.90
4896;DHT22;2463;49.948;8.472;2023-07-16T03:35:28;18.70;99.90
4896;DHT22;2463;49.948;8.472;2023-07-16T03:37:55;18.60;99.90
4896;DHT22;2463;49.948;8.472;2023-07-16T03:40:26;18.60;99.90
4896;DHT22;2463;49.948;8.472;2023-07-16T03:42:53;18.60;99.90
4896;DHT22;2463;49.948;8.472;2023-07-16T03:45:20;18.60;99.90
4896;DHT22;2463;49.948;8.472;2023-07-16T03:47:47;18.60;99.90
4896;DHT22;2463;49.948;8.472;2023-07-16T03:50:14;18.60;99.90
4896;DHT22;2463;49.948;8.472;2023-07-16T03:52:41;18.60;99.90
4896;DHT22;2463;49.948;8.472;2023-07-16T03:55:08;18.50;99.90
4896;DHT22;2463;49.948;8.472;2023-07-16T03:57:35;18.50;99.90
4896;DHT22;2463;49.948;8.472;2023-07-16T04:00:03;18.50;99.90
4896;DHT22;2463;49.948;8.472;2023-07-16T04:02:32;18.50;99.90
4896;DHT22;2463;49.948;8.472;2023-07-16T04:04:59;18.40;99.90
4896;DHT22;2463;49.948;8.472;2023-07-16T04:07:26;18.40;99.90
4896;DHT22;2463;49.948;8.472;2023-07-16T04:09:52;18.40;99.90
4896;DHT22;2463;49.948;8.472;2023-07-16T04:12:19;18.30;99.90
4896;DHT22;2463;49.948;8.472;2023-07-16T04:14:46;18.30;99.90
4896;DHT22;2463;49.948;8.472;2023-07-16T04:17:13;18.30;99.90
4896;DHT22;2463;49.948;8.472;2023-07-16T04:19:40;18.20;99.90
4896;DHT22;2463;49.948;8.472;2023-07-16T04:22:07;18.20;99.90
4896;DHT22;2463;49.948;8.472;2023-07-16T04:24:33;18.10;99.90
4896;DHT22;2463;49.948;8.472;2023-07-16T04:27:00;18.10;99.90
4896;DHT22;2463;49.948;8.472;2023-07-16T04:29:27;18.10;99.90
4896;DHT22;2463;49.948;8.472;2023-07-16T04:31:53;18.10;99.90
4896;DHT22;2463;49.948;8.472;2023-07-16T04:34:20;18.00;99.90
4896;DHT22;2463;49.948;8.472;2023-07-16T04:36:47;18.00;99.90
4896;DHT22;2463;49.948;8.472;2023-07-16T04:39:13;18.00;99.90
4896;DHT22;2463;49.948;8.472;2023-07-16T04:41:40;18.00;99.90
4896;DHT22;2463;49.948;8.472;2023-07-16T04:44:07;18.00;99.90
4896;DHT22;2463;49.948;8.472;2023-07-16T04:46:33;18.00;99.90
4896;DHT22;2463;49.948;8.472;2023-07-16T04:49:02;18.10;99.90
4896;DHT22;2463;49.948;8.472;2023-07-16T04:51:29;18.10;99.90
4896;DHT22;2463;49.948;8.472;2023-07-16T04:53:56;18.10;99.90
4896;DHT22;2463;49.948;8.472;2023-07-16T04:56:23;18.10;99.90
4896;DHT22;2463;49.948;8.472;2023-07-16T04:58:49;18.10;99.90
4896;DHT22;2463;49.948;8.472;2023-07-16T05:01:16;18.00;99.90
4896;DHT22;2463;49.948;8.472;2023-07-16T05:03:43;18.10;99.90
4896;DHT22;2463;49.948;8.472;2023-07-16T05:06:10;18.20;99.90
4896;DHT22;2463;49.948;8.472;2023-07-16T05:08:36;18.20;99.90
4896;DHT22;2463;49.948;8.472;2023-07-16T05:11:03;18.20;99.90
4896;DHT22;2463;49.948;8.472;2023-07-16T05:13:30;18.30;99.90
4896;DHT22;2463;49.948;8.472;2023-07-16T05:15:57;18.30;99.90
4896;DHT22;2463;49.948;8.472;2023-07-16T05:18:23;18.30;99.90
4896;DHT22;2463;49.948;8.472;2023-07-16T05:20:50;18.30;99.90
4896;DHT22;2463;49.948;8.472;2023-07-16T05:23:17;18.30;99.90
4896;DHT22;2463;49.948;8.472;2023-07-16T05:25:50;18.40;99.90
4896;DHT22;2463;49.948;8.472;2023-07-16T05:28:18;18.30;99.90
4896;DHT22;2463;49.948;8.472;2023-07-16T05:30:45;18.30;99.90
4896;DHT22;2463;49.948;8.472;2023-07-16T05:33:11;18.40;99.90
4896;DHT22;2463;49.948;8.472;2023-07-16T05:35:41;18.40;99.90
4896;DHT22;2463;49.948;8.472;2023-07-16T05:38:08;18.50;99.90
4896;DHT22;2463;49.948;8.472;2023-07-16T05:40:35;18.50;99.90
4896;DHT22;2463;49.948;8.472;2023-07-16T05:43:01;18.60;99.90
4896;DHT22;2463;49.948;8.472;2023-07-16T05:45:29;18.60;99.90
4896;DHT22;2463;49.948;8.472;2023-07-16T05:47:56;18.70;99.90
4896;DHT22;2463;49.948;8.472;2023-07-16T05:50:22;18.70;99.90
4896;DHT22;2463;49.948;8.472;2023-07-16T05:52:49;18.70;99.90
4896;DHT22;2463;49.948;8.472;2023-07-16T05:55:17;18.80;99.90
4896;DHT22;2463;49.948;8.472;2023-07-16T05:57:44;18.80;99.90
4896;DHT22;2463;49.948;8.472;2023-07-16T06:00:11;18.80;99.90
4896;DHT22;2463;49.948;8.472;2023-07-16T06:02:37;18.90;99.90
4896;DHT22;2463;49.948;8.472;2023-07-16T06:05:05;18.90;99.90
4896;DHT22;2463;49.948;8.472;2023-07-16T06:07:32;19.00;99.90
4896;DHT22;2463;49.948;8.472;2023-07-16T06:09:59;19.10;99.90
4896;DHT22;2463;49.948;8.472;2023-07-16T06:12:25;19.10;99.90
4896;DHT22;2463;49.948;8.472;2023-07-16T06:14:53;19.30;99.90
4896;DHT22;2463;49.948;8.472;2023-07-16T06:17:19;19.40;99.90
4896;DHT22;2463;49.948;8.472;2023-07-16T06:19:46;19.60;99.90
4896;DHT22;2463;49.948;8.472;2023-07-16T06:22:16;19.80;99.90
4896;DHT22;2463;49.948;8.472;2023-07-16T06:24:43;19.90;99.90
4896;DHT22;2463;49.948;8.472;2023-07-16T06:27:10;20.10;99.90
4896;DHT22;2463;49.948;8.472;2023-07-16T06:29:36;20.20;99.90
4896;DHT22;2463;49.948;8.472;2023-07-16T06:32:03;20.60;99.90
4896;DHT22;2463;49.948;8.472;2023-07-16T06:34:30;21.30;99.90
4896;DHT22;2463;49.948;8.472;2023-07-16T06:36:57;22.10;99.90
4896;DHT22;2463;49.948;8.472;2023-07-16T06:39:24;22.60;99.90
4896;DHT22;2463;49.948;8.472;2023-07-16T06:41:51;23.10;99.90
4896;DHT22;2463;49.948;8.472;2023-07-16T06:44:17;23.60;99.90
4896;DHT22;2463;49.948;8.472;2023-07-16T06:46:44;24.10;99.90
4896;DHT22;2463;49.948;8.472;2023-07-16T06:49:11;24.50;99.90
4896;DHT22;2463;49.948;8.472;2023-07-16T06:51:37;25.30;99.90
4896;DHT22;2463;49.948;8.472;2023-07-16T06:54:04;26.20;99.90
4896;DHT22;2463;49.948;8.472;2023-07-16T06:56:31;27.30;99.90
4896;DHT22;2463;49.948;8.472;2023-07-16T06:58:57;27.90;99.90
4896;DHT22;2463;49.948;8.472;2023-07-16T07:01:24;28.40;99.90
4896;DHT22;2463;49.948;8.472;2023-07-16T07:03:51;28.80;99.90
4896;DHT22;2463;49.948;8.472;2023-07-16T07:06:18;29.20;99.90
4896;DHT22;2463;49.948;8.472;2023-07-16T07:08:44;29.90;99.90
4896;DHT22;2463;49.948;8.472;2023-07-16T07:11:11;30.50;99.90
4896;DHT22;2463;49.948;8.472;2023-07-16T07:13:38;30.40;99.50
4896;DHT22;2463;49.948;8.472;2023-07-16T07:16:05;29.70;99.90
4896;DHT22;2463;49.948;8.472;2023-07-16T07:18:31;29.70;99.10
4896;DHT22;2463;49.948;8.472;2023-07-16T07:20:58;29.50;98.70
4896;DHT22;2463;49.948;8.472;2023-07-16T07:23:25;29.10;99.90
4896;DHT22;2463;49.948;8.472;2023-07-16T07:25:52;28.80;99.90
4896;DHT22;2463;49.948;8.472;2023-07-16T07:28:19;28.40;99.60
4896;DHT22;2463;49.948;8.472;2023-07-16T07:30:46;27.90;99.90
4896;DHT22;2463;49.948;8.472;2023-07-16T07:33:13;27.90;99.90
4896;DHT22;2463;49.948;8.472;2023-07-16T07:35:40;27.30;99.90
4896;DHT22;2463;49.948;8.472;2023-07-16T07:38:07;27.10;99.90
4896;DHT22;2463;49.948;8.472;2023-07-16T07:40:33;27.20;99.90
4896;DHT22;2463;49.948;8.472;2023-07-16T07:43:00;27.10;99.90
4896;DHT22;2463;49.948;8.472;2023-07-16T07:45:27;26.80;99.90
4896;DHT22;2463;49.948;8.472;2023-07-16T07:47:54;26.50;99.90
4896;DHT22;2463;49.948;8.472;2023-07-16T07:50:20;26.30;99.90
4896;DHT22;2463;49.948;8.472;2023-07-16T07:52:47;26.30;99.90
4896;DHT22;2463;49.948;8.472;2023-07-16T07:55:14;26.00;99.90
4896;DHT22;2463;49.948;8.472;2023-07-16T07:57:41;25.60;99.90
4896;DHT22;2463;49.948;8.472;2023-07-16T08:00:08;25.40;99.90
4896;DHT22;2463;49.948;8.472;2023-07-16T08:02:38;25.10;99.90
4896;DHT22;2463;49.948;8.472;2023-07-16T08:05:05;25.20;99.90
4896;DHT22;2463;49.948;8.472;2023-07-16T08:07:33;25.40;99.90
4896;DHT22;2463;49.948;8.472;2023-07-16T08:09:59;25.60;99.90
4896;DHT22;2463;49.948;8.472;2023-07-16T08:12:26;25.40;99.90
4896;DHT22;2463;49.948;8.472;2023-07-16T08:14:53;25.80;99.90
4896;DHT22;2463;49.948;8.472;2023-07-16T08:17:20;25.70;99.90
4896;DHT22;2463;49.948;8.472;2023-07-16T08:19:50;25.40;99.90
4896;DHT22;2463;49.948;8.472;2023-07-16T08:22:16;25.20;99.90
4896;DHT22;2463;49.948;8.472;2023-07-16T08:24:43;25.40;99.90
4896;DHT22;2463;49.948;8.472;2023-07-16T08:27:10;25.50;99.90
4896;DHT22;2463;49.948;8.472;2023-07-16T08:29:37;25.50;99.90
4896;DHT22;2463;49.948;8.472;2023-07-16T08:32:04;25.50;99.90
4896;DHT22;2463;49.948;8.472;2023-07-16T08:34:31;25.50;99.90
4896;DHT22;2463;49.948;8.472;2023-07-16T08:36:57;25.40;99.90
4896;DHT22;2463;49.948;8.472;2023-07-16T08:39:24;25.40;99.90
4896;DHT22;2463;49.948;8.472;2023-07-16T08:41:52;25.40;99.90
4896;DHT22;2463;49.948;8.472;2023-07-16T08:44:20;25.60;99.90
4896;DHT22;2463;49.948;8.472;2023-07-16T08:46:47;25.70;99.90
4896;DHT22;2463;49.948;8.472;2023-07-16T08:49:18;25.70;99.90
4896;DHT22;2463;49.948;8.472;2023-07-16T08:51:49;25.70;99.90
4896;DHT22;2463;49.948;8.472;2023-07-16T08:54:16;25.80;99.90
4896;DHT22;2463;49.948;8.472;2023-07-16T08:56:44;25.60;99.90
4896;DHT22;2463;49.948;8.472;2023-07-16T08:59:11;25.40;99.90
4896;DHT22;2463;49.948;8.472;2023-07-16T09:01:38;25.50;99.90
4896;DHT22;2463;49.948;8.472;2023-07-16T09:04:04;25.40;99.90
4896;DHT22;2463;49.948;8.472;2023-07-16T09:06:31;25.40;99.90
4896;DHT22;2463;49.948;8.472;2023-07-16T09:08:58;25.50;99.90
4896;DHT22;2463;49.948;8.472;2023-07-16T09:11:25;25.50;99.90
4896;DHT22;2463;49.948;8.472;2023-07-16T09:13:51;25.60;99.90
4896;DHT22;2463;49.948;8.472;2023-07-16T09:16:19;25.80;99.90
4896;DHT22;2463;49.948;8.472;2023-07-16T09:18:47;25.80;99.90
4896;DHT22;2463;49.948;8.472;2023-07-16T09:21:14;25.90;99.90
4896;DHT22;2463;49.948;8.472;2023-07-16T09:23:42;25.70;99.90
4896;DHT22;2463;49.948;8.472;2023-07-16T09:26:09;25.30;99.90
4896;DHT22;2463;49.948;8.472;2023-07-16T09:28:35;25.20;99.90
4896;DHT22;2463;49.948;8.472;2023-07-16T09:31:06;25.50;99.90
4896;DHT22;2463;49.948;8.472;2023-07-16T09:33:34;25.70;99.90
4896;DHT22;2463;49.948;8.472;2023-07-16T09:36:02;25.80;99.60
4896;DHT22;2463;49.948;8.472;2023-07-16T09:38:30;26.00;99.90
4896;DHT22;2463;49.948;8.472;2023-07-16T09:40:57;26.10;99.90
4896;DHT22;2463;49.948;8.472;2023-07-16T09:43:24;26.40;99.80
4896;DHT22;2463;49.948;8.472;2023-07-16T09:45:51;26.70;99.10
4896;DHT22;2463;49.948;8.472;2023-07-16T09:48:18;26.80;99.20
4896;DHT22;2463;49.948;8.472;2023-07-16T09:50:51;26.50;99.20
4896;DHT22;2463;49.948;8.472;2023-07-16T09:53:20;26.60;98.90
4896;DHT22;2463;49.948;8.472;2023-07-16T09:55:48;26.70;98.70
4896;DHT22;2463;49.948;8.472;2023-07-16T09:58:17;26.90;99.10
4896;DHT22;2463;49.948;8.472;2023-07-16T10:00:47;27.00;98.10
4896;DHT22;2463;49.948;8.472;2023-07-16T10:03:15;26.90;98.60
4896;DHT22;2463;49.948;8.472;2023-07-16T10:05:43;26.90;97.60
4896;DHT22;2463;49.948;8.472;2023-07-16T10:08:17;27.10;99.10
4896;DHT22;2463;49.948;8.472;2023-07-16T10:10:52;27.00;98.50
4896;DHT22;2463;49.948;8.472;2023-07-16T10:13:22;26.90;96.90
4896;DHT22;2463;49.948;8.472;2023-07-16T10:15:56;26.40;97.70
4896;DHT22;2463;49.948;8.472;2023-07-16T10:18:27;26.10;98.00
4896;DHT22;2463;49.948;8.472;2023-07-16T10:21:01;25.80;97.50
4896;DHT22;2463;49.948;8.472;2023-07-16T10:23:40;25.60;98.30
4896;DHT22;2463;49.948;8.472;2023-07-16T10:26:09;25.40;98.80
4896;DHT22;2463;49.948;8.472;2023-07-16T10:28:37;25.40;99.40
4896;DHT22;2463;49.948;8.472;2023-07-16T10:31:04;25.50;99.20
4896;DHT22;2463;49.948;8.472;2023-07-16T10:33:34;25.60;99.10
4896;DHT22;2463;49.948;8.472;2023-07-16T10:36:04;25.60;98.50
4896;DHT22;2463;49.948;8.472;2023-07-16T10:38:40;25.70;99.40
4896;DHT22;2463;49.948;8.472;2023-07-16T10:41:08;25.60;98.80
4896;DHT22;2463;49.948;8.472;2023-07-16T10:43:34;25.50;98.90
4896;DHT22;2463;49.948;8.472;2023-07-16T10:46:02;25.50;99.20
4896;DHT22;2463;49.948;8.472;2023-07-16T10:48:29;25.60;99.90
4896;DHT22;2463;49.948;8.472;2023-07-16T10:50:57;25.60;98.70
4896;DHT22;2463;49.948;8.472;2023-07-16T10:53:23;25.80;99.60
4896;DHT22;2463;49.948;8.472;2023-07-16T10:55:50;26.10;98.70
4896;DHT22;2463;49.948;8.472;2023-07-16T10:58:17;26.30;97.60
4896;DHT22;2463;49.948;8.472;2023-07-16T11:00:44;26.70;98.00
4896;DHT22;2463;49.948;8.472;2023-07-16T11:03:15;27.00;97.60
4896;DHT22;2463;49.948;8.472;2023-07-16T11:05:45;26.90;96.90
4896;DHT22;2463;49.948;8.472;2023-07-16T11:08:24;26.90;96.20
4896;DHT22;2463;49.948;8.472;2023-07-16T11:10:57;27.00;96.50
4896;DHT22;2463;49.948;8.472;2023-07-16T11:13:28;27.10;96.60
4896;DHT22;2463;49.948;8.472;2023-07-16T11:15:55;27.20;97.00
4896;DHT22;2463;49.948;8.472;2023-07-16T11:18:24;27.50;96.60
4896;DHT22;2463;49.948;8.472;2023-07-16T11:20:52;27.80;96.70
4896;DHT22;2463;49.948;8.472;2023-07-16T11:23:19;28.10;95.20
4896;DHT22;2463;49.948;8.472;2023-07-16T11:25:47;28.20;95.30
4896;DHT22;2463;49.948;8.472;2023-07-16T11:28:14;28.50;93.70
4896;DHT22;2463;49.948;8.472;2023-07-16T11:30:41;28.60;93.50
4896;DHT22;2463;49.948;8.472;2023-07-16T11:33:12;28.90;93.40
4896;DHT22;2463;49.948;8.472;2023-07-16T11:35:39;29.20;94.40
4896;DHT22;2463;49.948;8.472;2023-07-16T11:38:07;29.40;91.90
4896;DHT22;2463;49.948;8.472;2023-07-16T11:40:35;29.40;90.50
4896;DHT22;2463;49.948;8.472;2023-07-16T11:43:12;29.40;92.40
4896;DHT22;2463;49.948;8.472;2023-07-16T11:45:39;29.30;93.10
4896;DHT22;2463;49.948;8.472;2023-07-16T11:48:05;29.40;92.00
4896;DHT22;2463;49.948;8.472;2023-07-16T11:50:32;29.30;91.30
4896;DHT22;2463;49.948;8.472;2023-07-16T11:53:00;29.30;90.90
4896;DHT22;2463;49.948;8.472;2023-07-16T11:55:28;29.20;90.60
4896;DHT22;2463;49.948;8.472;2023-07-16T11:57:54;29.10;90.10
4896;DHT22;2463;49.948;8.472;2023-07-16T12:00:23;29.20;91.10
4896;DHT22;2463;49.948;8.472;2023-07-16T12:02:50;29.20;90.20
4896;DHT22;2463;49.948;8.472;2023-07-16T12:05:21;29.30;90.00
4896;DHT22;2463;49.948;8.472;2023-07-16T12:08:07;29.30;90.80
4896;DHT22;2463;49.948;8.472;2023-07-16T12:10:41;29.60;89.10
4896;DHT22;2463;49.948;8.472;2023-07-16T12:13:07;29.90;90.10
4896;DHT22;2463;49.948;8.472;2023-07-16T12:15:34;29.70;89.00
4896;DHT22;2463;49.948;8.472;2023-07-16T12:18:01;29.40;85.50
4896;DHT22;2463;49.948;8.472;2023-07-16T12:20:28;29.30;89.40
4896;DHT22;2463;49.948;8.472;2023-07-16T12:22:54;29.20;85.50
4896;DHT22;2463;49.948;8.472;2023-07-16T12:25:21;29.00;88.30
4896;DHT22;2463;49.948;8.472;2023-07-16T12:27:48;28.80;86.50
4896;DHT22;2463;49.948;8.472;2023-07-16T12:30:16;28.70;82.70
4896;DHT22;2463;49.948;8.472;2023-07-16T12:32:43;28.70;84.60
4896;DHT22;2463;49.948;8.472;2023-07-16T12:35:10;28.50;86.00
4896;DHT22;2463;49.948;8.472;2023-07-16T12:37:37;28.40;84.40
4896;DHT22;2463;49.948;8.472;2023-07-16T12:40:06;28.20;87.10
4896;DHT22;2463;49.948;8.472;2023-07-16T12:42:33;28.40;83.90
4896;DHT22;2463;49.948;8.472;2023-07-16T12:45:01;28.60;88.10
4896;DHT22;2463;49.948;8.472;2023-07-16T12:47:28;28.70;85.50
4896;DHT22;2463;49.948;8.472;2023-07-16T12:49:55;29.00;89.20
4896;DHT22;2463;49.948;8.472;2023-07-16T12:52:21;29.20;82.70
4896;DHT22;2463;49.948;8.472;2023-07-16T12:54:48;29.30;83.00
4896;DHT22;2463;49.948;8.472;2023-07-16T12:57:16;29.20;83.90
4896;DHT22;2463;49.948;8.472;2023-07-16T12:59:43;29.00;83.80
4896;DHT22;2463;49.948;8.472;2023-07-16T13:02:10;28.80;83.20
4896;DHT22;2463;49.948;8.472;2023-07-16T13:04:36;28.60;83.00
4896;DHT22;2463;49.948;8.472;2023-07-16T13:07:03;28.50;81.50
4896;DHT22;2463;49.948;8.472;2023-07-16T13:09:30;28.30;82.20
4896;DHT22;2463;49.948;8.472;2023-07-16T13:11:57;28.30;84.10
4896;DHT22;2463;49.948;8.472;2023-07-16T13:14:23;28.60;86.50
4896;DHT22;2463;49.948;8.472;2023-07-16T13:16:50;28.70;81.70
4896;DHT22;2463;49.948;8.472;2023-07-16T13:19:17;28.80;83.80
4896;DHT22;2463;49.948;8.472;2023-07-16T13:21:43;28.90;80.90
4896;DHT22;2463;49.948;8.472;2023-07-16T13:24:10;29.20;80.90
4896;DHT22;2463;49.948;8.472;2023-07-16T13:26:37;29.20;80.80
4896;DHT22;2463;49.948;8.472;2023-07-16T13:29:04;29.40;80.70
4896;DHT22;2463;49.948;8.472;2023-07-16T13:31:30;29.30;79.90
4896;DHT22;2463;49.948;8.472;2023-07-16T13:33:57;29.60;77.90
4896;DHT22;2463;49.948;8.472;2023-07-16T13:36:24;29.50;77.80
4896;DHT22;2463;49.948;8.472;2023-07-16T13:38:51;29.40;79.80
4896;DHT22;2463;49.948;8.472;2023-07-16T13:41:18;29.50;79.90
4896;DHT22;2463;49.948;8.472;2023-07-16T13:43:44;29.30;82.20
4896;DHT22;2463;49.948;8.472;2023-07-16T13:46:11;29.20;80.80
4896;DHT22;2463;49.948;8.472;2023-07-16T13:48:38;29.00;81.90
4896;DHT22;2463;49.948;8.472;2023-07-16T13:51:24;28.90;81.60
4896;DHT22;2463;49.948;8.472;2023-07-16T13:53:51;28.90;79.30
4896;DHT22;2463;49.948;8.472;2023-07-16T13:56:17;28.90;78.50
4896;DHT22;2463;49.948;8.472;2023-07-16T13:58:45;29.00;79.30
4896;DHT22;2463;49.948;8.472;2023-07-16T14:01:11;28.90;78.30
4896;DHT22;2463;49.948;8.472;2023-07-16T14:03:38;28.60;78.50
4896;DHT22;2463;49.948;8.472;2023-07-16T14:06:05;28.60;77.80
4896;DHT22;2463;49.948;8.472;2023-07-16T14:08:32;28.40;80.30
4896;DHT22;2463;49.948;8.472;2023-07-16T14:11:00;28.60;82.20
4896;DHT22;2463;49.948;8.472;2023-07-16T14:13:27;28.50;79.70
4896;DHT22;2463;49.948;8.472;2023-07-16T14:15:54;28.50;81.80
4896;DHT22;2463;49.948;8.472;2023-07-16T14:18:21;28.60;80.50
4896;DHT22;2463;49.948;8.472;2023-07-16T14:20:48;28.80;79.50
4896;DHT22;2463;49.948;8.472;2023-07-16T14:23:14;29.00;80.60
4896;DHT22;2463;49.948;8.472;2023-07-16T14:25:41;29.10;77.30
4896;DHT22;2463;49.948;8.472;2023-07-16T14:28:08;29.30;77.10
4896;DHT22;2463;49.948;8.472;2023-07-16T14:30:35;29.30;77.60
4896;DHT22;2463;49.948;8.472;2023-07-16T14:33:01;29.40;76.80
4896;DHT22;2463;49.948;8.472;2023-07-16T14:35:32;29.40;75.60
4896;DHT22;2463;49.948;8.472;2023-07-16T14:38:03;29.40;75.30
4896;DHT22;2463;49.948;8.472;2023-07-16T14:40:30;29.40;76.00
4896;DHT22;2463;49.948;8.472;2023-07-16T14:42:57;29.60;77.70
4896;DHT22;2463;49.948;8.472;2023-07-16T14:45:24;29.40;73.70
4896;DHT22;2463;49.948;8.472;2023-07-16T14:47:51;29.30;74.80
4896;DHT22;2463;49.948;8.472;2023-07-16T14:50:18;29.30;75.70
4896;DHT22;2463;49.948;8.472;2023-07-16T14:52:45;29.30;76.60
4896;DHT22;2463;49.948;8.472;2023-07-16T14:55:11;29.30;74.50
4896;DHT22;2463;49.948;8.472;2023-07-16T14:57:38;29.30;76.50
4896;DHT22;2463;49.948;8.472;2023-07-16T15:00:06;28.90;75.80
4896;DHT22;2463;49.948;8.472;2023-07-16T15:02:34;29.00;73.40
4896;DHT22;2463;49.948;8.472;2023-07-16T15:05:01;28.90;73.60
4896;DHT22;2463;49.948;8.472;2023-07-16T15:07:27;28.80;74.20
4896;DHT22;2463;49.948;8.472;2023-07-16T15:09:54;28.80;74.20
4896;DHT22;2463;49.948;8.472;2023-07-16T15:12:21;28.70;73.30
4896;DHT22;2463;49.948;8.472;2023-07-16T15:14:47;28.60;73.60
4896;DHT22;2463;49.948;8.472;2023-07-16T15:17:14;28.30;74.60
4896;DHT22;2463;49.948;8.472;2023-07-16T15:19:41;28.20;76.20
4896;DHT22;2463;49.948;8.472;2023-07-16T15:22:07;28.20;75.60
4896;DHT22;2463;49.948;8.472;2023-07-16T15:24:36;28.30;78.40
4896;DHT22;2463;49.948;8.472;2023-07-16T15:27:03;28.40;76.90
4896;DHT22;2463;49.948;8.472;2023-07-16T15:29:30;28.50;76.50
4896;DHT22;2463;49.948;8.472;2023-07-16T15:31:57;28.60;75.90
4896;DHT22;2463;49.948;8.472;2023-07-16T15:34:28;28.60;75.10
4896;DHT22;2463;49.948;8.472;2023-07-16T15:36:55;28.70;72.30
4896;DHT22;2463;49.948;8.472;2023-07-16T15:39:22;28.70;73.40
4896;DHT22;2463;49.948;8.472;2023-07-16T15:41:48;28.70;74.00
4896;DHT22;2463;49.948;8.472;2023-07-16T15:44:16;28.70;73.10
4896;DHT22;2463;49.948;8.472;2023-07-16T15:46:43;28.80;74.20
4896;DHT22;2463;49.948;8.472;2023-07-16T15:49:12;28.90;74.00
4896;DHT22;2463;49.948;8.472;2023-07-16T15:51:39;28.90;74.00
4896;DHT22;2463;49.948;8.472;2023-07-16T15:54:07;29.10;76.00
4896;DHT22;2463;49.948;8.472;2023-07-16T15:56:34;29.20;73.40
4896;DHT22;2463;49.948;8.472;2023-07-16T15:59:01;29.10;71.20
4896;DHT22;2463;49.948;8.472;2023-07-16T16:01:28;29.00;73.20
4896;DHT22;2463;49.948;8.472;2023-07-16T16:03:55;29.00;72.30
4896;DHT22;2463;49.948;8.472;2023-07-16T16:06:21;29.00;72.70
4896;DHT22;2463;49.948;8.472;2023-07-16T16:08:48;28.80;72.30